sensor_id;sensor_type;location;lat;lon;timestamp;pressure;altitude;pressure_sealevel;temperature;humidity
75891;BME280;64571;47.512;19.054;2023-04-25T00:01:20;99384.59;;;12.83;74.87
75891;BME280;64571;47.512;19.054;2023-04-25T00:04:24;99384.59;;;12.83;74.55
75891;BME280;64571;47.512;19.054;2023-04-25T00:07:28;99369.78;;;12.70;74.37
75891;BME280;64571;47.512;19.054;2023-04-25T00:10:31;99378.41;;;12.77;73.88
75891;BME280;64571;47.512;19.054;2023-04-25T00:13:33;99368.47;;;12.67;73.91
75891;BME280;64571;47.512;19.054;2023-04-25T00:16:36;99370.66;;;12.62;73.71
75891;BME280;64571;47.512;19.054;2023-04-25T00:19:39;99372.91;;;12.68;73.70
75891;BME280;64571;47.512;19.054;2023-04-25T00:22:41;99376.84;;;12.67;73.67
75891;BME280;64571;47.512;19.054;2023-04-25T00:25:45;99362.28;;;12.62;74.08
75891;BME280;64571;47.512;19.054;2023-04-25T00:28:48;99353.03;;;12.49;74.10
75891;BME280;64571;47.512;19.054;2023-04-25T00:31:50;99368.94;;;12.70;73.92
75891;BME280;64571;47.512;19.054;2023-04-25T00:34:53;99359.97;;;12.64;73.81
75891;BME280;64571;47.512;19.054;2023-04-25T00:37:57;99366.50;;;12.68;73.91
75891;BME280;64571;47.512;19.054;2023-04-25T00:41:00;99336.91;;;12.55;73.71
75891;BME280;64571;47.512;19.054;2023-04-25T00:44:04;99351.47;;;12.60;73.82
75891;BME280;64571;47.512;19.054;2023-04-25T00:47:10;99341.97;;;12.61;73.84
75891;BME280;64571;47.512;19.054;2023-04-25T00:50:13;99343.44;;;12.59;73.96
75891;BME280;64571;47.512;19.054;2023-04-25T00:53:16;99321.75;;;12.44;73.59
75891;BME280;64571;47.512;19.054;2023-04-25T00:56:19;99322.72;;;12.48;73.61
75891;BME280;64571;47.512;19.054;2023-04-25T00:59:23;99319.78;;;12.44;73.68
75891;BME280;64571;47.512;19.054;2023-04-25T01:02:26;99306.81;;;12.48;73.63
75891;BME280;64571;47.512;19.054;2023-04-25T01:05:29;99316.44;;;12.51;73.19
75891;BME280;64571;47.512;19.054;2023-04-25T01:08:32;99306.06;;;12.60;72.74
75891;BME280;64571;47.512;19.054;2023-04-25T01:11:34;99299.50;;;12.56;72.91
75891;BME280;64571;47.512;19.054;2023-04-25T01:14:37;99284.00;;;12.46;72.46
75891;BME280;64571;47.512;19.054;2023-04-25T01:17:40;99303.75;;;12.62;72.75
75891;BME280;64571;47.512;19.054;2023-04-25T01:20:43;99306.44;;;12.50;72.60
75891;BME280;64571;47.512;19.054;2023-04-25T01:23:48;99292.37;;;12.46;72.53
75891;BME280;64571;47.512;19.054;2023-04-25T01:26:51;99281.91;;;12.43;72.60
75891;BME280;64571;47.512;19.054;2023-04-25T01:29:56;99302.50;;;12.51;72.73
75891;BME280;64571;47.512;19.054;2023-04-25T01:32:58;99300.22;;;12.53;72.96
75891;BME280;64571;47.512;19.054;2023-04-25T01:36:04;99303.88;;;12.45;73.27
75891;BME280;64571;47.512;19.054;2023-04-25T01:39:06;99295.91;;;12.34;73.74
75891;BME280;64571;47.512;19.054;2023-04-25T01:42:09;99305.75;;;12.32;74.12
75891;BME280;64571;47.512;19.054;2023-04-25T01:45:12;99308.53;;;12.32;74.39
75891;BME280;64571;47.512;19.054;2023-04-25T01:48:15;99293.63;;;12.28;74.08
75891;BME280;64571;47.512;19.054;2023-04-25T01:51:18;99275.19;;;12.14;74.27
75891;BME280;64571;47.512;19.054;2023-04-25T01:54:21;99296.28;;;12.24;74.07
75891;BME280;64571;47.512;19.054;2023-04-25T01:57:24;99283.69;;;12.18;74.02
75891;BME280;64571;47.512;19.054;2023-04-25T02:00:27;99299.34;;;12.31;73.65
75891;BME280;64571;47.512;19.054;2023-04-25T02:03:32;99303.31;;;12.30;73.12
75891;BME280;64571;47.512;19.054;2023-04-25T02:06:36;99296.41;;;12.28;73.41
75891;BME280;64571;47.512;19.054;2023-04-25T02:09:41;99295.47;;;12.24;73.06
75891;BME280;64571;47.512;19.054;2023-04-25T02:12:46;99293.03;;;12.22;72.80
75891;BME280;64571;47.512;19.054;2023-04-25T02:15:49;99300.37;;;12.27;72.59
75891;BME280;64571;47.512;19.054;2023-04-25T02:18:51;99293.03;;;12.22;72.82
75891;BME280;64571;47.512;19.054;2023-04-25T02:21:55;99277.22;;;12.05;72.62
75891;BME280;64571;47.512;19.054;2023-04-25T02:24:59;99283.56;;;12.14;72.73
75891;BME280;64571;47.512;19.054;2023-04-25T02:28:01;99282.41;;;12.15;72.39
75891;BME280;64571;47.512;19.054;2023-04-25T02:31:05;99305.31;;;12.21;72.16
75891;BME280;64571;47.512;19.054;2023-04-25T02:34:07;99305.44;;;12.25;72.15
75891;BME280;64571;47.512;19.054;2023-04-25T02:37:10;99302.34;;;12.26;71.97
75891;BME280;64571;47.512;19.054;2023-04-25T02:40:13;99298.75;;;12.26;70.81
75891;BME280;64571;47.512;19.054;2023-04-25T02:43:15;99292.34;;;12.25;70.48
75891;BME280;64571;47.512;19.054;2023-04-25T02:46:18;99278.78;;;12.15;69.23
75891;BME280;64571;47.512;19.054;2023-04-25T02:49:40;99277.66;;;12.16;69.15
75891;BME280;64571;47.512;19.054;2023-04-25T02:52:43;99298.91;;;12.29;68.93
75891;BME280;64571;47.512;19.054;2023-04-25T02:55:46;99282.53;;;12.19;68.92
75891;BME280;64571;47.512;19.054;2023-04-25T02:58:49;99302.66;;;12.25;69.31
75891;BME280;64571;47.512;19.054;2023-04-25T03:01:52;99307.91;;;12.26;69.62
75891;BME280;64571;47.512;19.054;2023-04-25T03:04:54;99298.63;;;12.13;70.31
75891;BME280;64571;47.512;19.054;2023-04-25T03:07:57;99287.53;;;12.05;70.45
75891;BME280;64571;47.512;19.054;2023-04-25T03:11:00;99302.03;;;12.19;70.32
75891;BME280;64571;47.512;19.054;2023-04-25T03:14:03;99298.25;;;12.24;70.36
75891;BME280;64571;47.512;19.054;2023-04-25T03:17:06;99298.94;;;12.21;70.57
75891;BME280;64571;47.512;19.054;2023-04-25T03:20:10;99290.59;;;12.21;70.78
75891;BME280;64571;47.512;19.054;2023-04-25T03:23:13;99293.25;;;12.08;71.12
75891;BME280;64571;47.512;19.054;2023-04-25T03:26:16;99280.38;;;11.95;71.34
75891;BME280;64571;47.512;19.054;2023-04-25T03:29:19;99296.84;;;12.09;70.79
75891;BME280;64571;47.512;19.054;2023-04-25T03:32:27;99294.13;;;12.00;71.07
75891;BME280;64571;47.512;19.054;2023-04-25T03:35:29;99306.06;;;12.01;71.23
75891;BME280;64571;47.512;19.054;2023-04-25T03:38:32;99276.97;;;11.89;70.75
75891;BME280;64571;47.512;19.054;2023-04-25T03:41:35;99289.94;;;11.85;71.00
75891;BME280;64571;47.512;19.054;2023-04-25T03:44:38;99297.47;;;11.85;71.03
75891;BME280;64571;47.512;19.054;2023-04-25T03:47:41;99283.25;;;11.69;71.12
75891;BME280;64571;47.512;19.054;2023-04-25T03:50:44;99299.28;;;11.72;71.23
75891;BME280;64571;47.512;19.054;2023-04-25T03:53:47;99285.41;;;11.63;71.41
75891;BME280;64571;47.512;19.054;2023-04-25T03:56:53;99303.22;;;11.71;71.65
75891;BME280;64571;47.512;19.054;2023-04-25T03:59:56;99309.28;;;11.64;71.97
75891;BME280;64571;47.512;19.054;2023-04-25T04:02:59;99309.81;;;11.58;72.24
75891;BME280;64571;47.512;19.054;2023-04-25T04:06:03;99308.50;;;11.55;72.28
75891;BME280;64571;47.512;19.054;2023-04-25T04:09:07;99321.06;;;11.61;72.14
75891;BME280;64571;47.512;19.054;2023-04-25T04:12:13;99310.78;;;11.62;71.73
75891;BME280;64571;47.512;19.054;2023-04-25T04:15:16;99298.69;;;11.49;71.86
75891;BME280;64571;47.512;19.054;2023-04-25T04:18:19;99327.81;;;11.43;73.23
75891;BME280;64571;47.512;19.054;2023-04-25T04:21:21;99313.44;;;11.50;73.20
75891;BME280;64571;47.512;19.054;2023-04-25T04:24:24;99311.03;;;11.31;73.57
75891;BME280;64571;47.512;19.054;2023-04-25T04:27:27;99330.78;;;11.47;73.74
75891;BME280;64571;47.512;19.054;2023-04-25T04:30:32;99335.69;;;11.41;73.91
75891;BME280;64571;47.512;19.054;2023-04-25T04:33:38;99333.72;;;11.41;73.75
75891;BME280;64571;47.512;19.054;2023-04-25T04:36:42;99317.59;;;11.18;74.46
75891;BME280;64571;47.512;19.054;2023-04-25T04:39:44;99318.06;;;11.11;74.94
75891;BME280;64571;47.512;19.054;2023-04-25T04:42:48;99343.25;;;11.32;75.07
75891;BME280;64571;47.512;19.054;2023-04-25T04:45:51;99320.03;;;11.02;75.12
75891;BME280;64571;47.512;19.054;2023-04-25T04:48:55;99314.63;;;10.97;75.88
75891;BME280;64571;47.512;19.054;2023-04-25T04:51:59;99315.97;;;10.99;75.87
75891;BME280;64571;47.512;19.054;2023-04-25T04:55:04;99317.91;;;10.90;76.16
75891;BME280;64571;47.512;19.054;2023-04-25T04:58:07;99338.34;;;11.03;76.34
75891;BME280;64571;47.512;19.054;2023-04-25T05:01:10;99324.59;;;10.98;76.64
75891;BME280;64571;47.512;19.054;2023-04-25T05:04:14;99322.50;;;10.77;77.32
75891;BME280;64571;47.512;19.054;2023-04-25T05:07:18;99345.72;;;10.90;78.01
75891;BME280;64571;47.512;19.054;2023-04-25T05:10:20;99352.09;;;10.90;78.06
75891;BME280;64571;47.512;19.054;2023-04-25T05:13:26;99340.63;;;10.83;77.87
75891;BME280;64571;47.512;19.054;2023-04-25T05:16:29;99345.19;;;10.79;77.90
75891;BME280;64571;47.512;19.054;2023-04-25T05:19:32;99339.81;;;10.74;78.24
75891;BME280;64571;47.512;19.054;2023-04-25T05:22:35;99329.66;;;10.70;78.69
75891;BME280;64571;47.512;19.054;2023-04-25T05:25:39;99347.16;;;10.70;78.90
75891;BME280;64571;47.512;19.054;2023-04-25T05:28:42;99321.31;;;10.61;79.20
75891;BME280;64571;47.512;19.054;2023-04-25T05:31:45;99318.88;;;10.51;79.04
75891;BME280;64571;47.512;19.054;2023-04-25T05:34:47;99334.88;;;10.62;79.63
75891;BME280;64571;47.512;19.054;2023-04-25T05:37:51;99325.56;;;10.41;78.99
75891;BME280;64571;47.512;19.054;2023-04-25T05:40:55;99349.25;;;10.47;80.27
75891;BME280;64571;47.512;19.054;2023-04-25T05:44:01;99333.34;;;10.30;81.48
75891;BME280;64571;47.512;19.054;2023-04-25T05:47:04;99341.38;;;10.32;82.84
75891;BME280;64571;47.512;19.054;2023-04-25T05:50:08;99331.16;;;10.10;83.38
75891;BME280;64571;47.512;19.054;2023-04-25T05:53:13;99350.63;;;10.19;84.30
75891;BME280;64571;47.512;19.054;2023-04-25T05:56:15;99352.41;;;10.14;84.47
75891;BME280;64571;47.512;19.054;2023-04-25T05:59:20;99339.28;;;10.06;84.74
75891;BME280;64571;47.512;19.054;2023-04-25T06:02:22;99357.28;;;10.18;84.30
75891;BME280;64571;47.512;19.054;2023-04-25T06:05:27;99360.44;;;10.25;85.01
75891;BME280;64571;47.512;19.054;2023-04-25T06:08:29;99357.62;;;10.16;84.55
75891;BME280;64571;47.512;19.054;2023-04-25T06:11:32;99359.09;;;10.13;84.50
75891;BME280;64571;47.512;19.054;2023-04-25T06:14:34;99358.34;;;10.30;84.77
75891;BME280;64571;47.512;19.054;2023-04-25T06:17:37;99369.28;;;10.27;84.35
75891;BME280;64571;47.512;19.054;2023-04-25T06:20:40;99368.97;;;10.28;84.63
75891;BME280;64571;47.512;19.054;2023-04-25T06:23:43;99369.47;;;10.39;84.34
75891;BME280;64571;47.512;19.054;2023-04-25T06:26:46;99353.19;;;10.55;84.71
75891;BME280;64571;47.512;19.054;2023-04-25T06:29:50;99370.88;;;10.68;83.66
75891;BME280;64571;47.512;19.054;2023-04-25T06:32:52;99369.22;;;10.75;83.27
75891;BME280;64571;47.512;19.054;2023-04-25T06:35:56;99351.56;;;10.62;82.93
75891;BME280;64571;47.512;19.054;2023-04-25T06:38:59;99381.66;;;10.78;82.92
75891;BME280;64571;47.512;19.054;2023-04-25T06:42:01;99380.19;;;10.89;82.10
75891;BME280;64571;47.512;19.054;2023-04-25T06:45:05;99371.38;;;10.96;82.00
75891;BME280;64571;47.512;19.054;2023-04-25T06:48:10;99354.19;;;10.85;81.92
75891;BME280;64571;47.512;19.054;2023-04-25T06:51:12;99378.41;;;11.02;81.62
75891;BME280;64571;47.512;19.054;2023-04-25T06:54:18;99377.78;;;11.05;81.08
75891;BME280;64571;47.512;19.054;2023-04-25T06:57:22;99382.84;;;11.20;81.63
75891;BME280;64571;47.512;19.054;2023-04-25T07:00:26;99383.50;;;11.26;81.18
75891;BME280;64571;47.512;19.054;2023-04-25T07:03:28;99374.19;;;11.13;79.98
75891;BME280;64571;47.512;19.054;2023-04-25T07:06:32;99372.38;;;11.17;80.66
75891;BME280;64571;47.512;19.054;2023-04-25T07:09:34;99367.47;;;11.31;80.71
75891;BME280;64571;47.512;19.054;2023-04-25T07:12:37;99384.63;;;11.42;79.82
75891;BME280;64571;47.512;19.054;2023-04-25T07:15:40;99385.78;;;11.32;79.35
75891;BME280;64571;47.512;19.054;2023-04-25T07:18:43;99385.44;;;11.43;78.96
75891;BME280;64571;47.512;19.054;2023-04-25T07:21:45;99390.16;;;11.68;79.02
75891;BME280;64571;47.512;19.054;2023-04-25T07:24:48;99382.28;;;11.87;78.24
75891;BME280;64571;47.512;19.054;2023-04-25T07:27:51;99371.28;;;12.00;78.03
75891;BME280;64571;47.512;19.054;2023-04-25T07:30:54;99386.63;;;12.06;76.75
75891;BME280;64571;47.512;19.054;2023-04-25T07:33:56;99381.88;;;12.06;76.64
75891;BME280;64571;47.512;19.054;2023-04-25T07:37:02;99389.91;;;12.16;76.23
75891;BME280;64571;47.512;19.054;2023-04-25T07:40:08;99390.22;;;12.15;76.25
75891;BME280;64571;47.512;19.054;2023-04-25T07:43:12;99386.56;;;12.23;75.89
75891;BME280;64571;47.512;19.054;2023-04-25T07:46:19;99387.22;;;12.20;75.40
75891;BME280;64571;47.512;19.054;2023-04-25T07:49:22;99395.72;;;12.32;75.25
75891;BME280;64571;47.512;19.054;2023-04-25T07:52:25;99371.88;;;12.52;73.97
75891;BME280;64571;47.512;19.054;2023-04-25T07:55:28;99387.59;;;12.78;73.95
75891;BME280;64571;47.512;19.054;2023-04-25T07:58:31;99392.16;;;12.82;72.79
75891;BME280;64571;47.512;19.054;2023-04-25T08:01:34;99377.09;;;12.83;72.68
75891;BME280;64571;47.512;19.054;2023-04-25T08:04:38;99377.09;;;13.04;71.83
75891;BME280;64571;47.512;19.054;2023-04-25T08:07:41;99389.81;;;13.14;71.73
75891;BME280;64571;47.512;19.054;2023-04-25T08:10:45;99389.06;;;13.05;70.72
75891;BME280;64571;47.512;19.054;2023-04-25T08:13:49;99374.16;;;13.01;70.63
75891;BME280;64571;47.512;19.054;2023-04-25T08:16:52;99377.16;;;13.16;70.07
75891;BME280;64571;47.512;19.054;2023-04-25T08:19:55;99390.34;;;13.49;68.66
75891;BME280;64571;47.512;19.054;2023-04-25T08:22:58;99381.25;;;13.40;68.58
75891;BME280;64571;47.512;19.054;2023-04-25T08:26:02;99387.50;;;13.37;68.49
75891;BME280;64571;47.512;19.054;2023-04-25T08:29:06;99375.22;;;13.38;68.14
75891;BME280;64571;47.512;19.054;2023-04-25T08:32:09;99382.81;;;13.50;68.36
75891;BME280;64571;47.512;19.054;2023-04-25T08:35:13;99385.34;;;13.76;66.76
75891;BME280;64571;47.512;19.054;2023-04-25T08:38:17;99407.53;;;13.60;67.44
75891;BME280;64571;47.512;19.054;2023-04-25T08:41:21;99403.28;;;13.54;66.73
75891;BME280;64571;47.512;19.054;2023-04-25T08:44:24;99404.63;;;13.68;66.57
75891;BME280;64571;47.512;19.054;2023-04-25T08:47:28;99385.91;;;13.69;66.58
75891;BME280;64571;47.512;19.054;2023-04-25T08:50:32;99411.94;;;13.94;65.51
75891;BME280;64571;47.512;19.054;2023-04-25T08:53:36;99395.66;;;14.08;65.32
75891;BME280;64571;47.512;19.054;2023-04-25T08:56:49;99423.03;;;14.27;65.81
75891;BME280;64571;47.512;19.054;2023-04-25T08:59:52;99419.81;;;14.37;65.45
75891;BME280;64571;47.512;19.054;2023-04-25T09:02:55;99419.88;;;13.71;66.21
75891;BME280;64571;47.512;19.054;2023-04-25T09:06:03;99413.03;;;14.14;65.58
75891;BME280;64571;47.512;19.054;2023-04-25T09:09:08;99397.78;;;14.36;64.41
75891;BME280;64571;47.512;19.054;2023-04-25T09:12:11;99418.78;;;14.54;63.97
75891;BME280;64571;47.512;19.054;2023-04-25T09:15:14;99394.19;;;14.35;62.18
75891;BME280;64571;47.512;19.054;2023-04-25T09:21:32;99419.16;;;14.89;61.83
75891;BME280;64571;47.512;19.054;2023-04-25T09:24:38;99418.34;;;14.77;61.51
75891;BME280;64571;47.512;19.054;2023-04-25T09:27:51;99417.44;;;14.73;61.61
75891;BME280;64571;47.512;19.054;2023-04-25T09:30:56;99394.94;;;14.57;61.07
75891;BME280;64571;47.512;19.054;2023-04-25T09:34:02;99392.59;;;14.83;60.81
75891;BME280;64571;47.512;19.054;2023-04-25T09:37:11;99396.31;;;15.00;60.38
75891;BME280;64571;47.512;19.054;2023-04-25T09:40:18;99407.63;;;14.91;60.42
75891;BME280;64571;47.512;19.054;2023-04-25T09:43:22;99416.91;;;15.07;60.28
75891;BME280;64571;47.512;19.054;2023-04-25T09:46:32;99407.97;;;14.77;60.07
75891;BME280;64571;47.512;19.054;2023-04-25T09:49:42;99409.16;;;14.64;60.61
75891;BME280;64571;47.512;19.054;2023-04-25T09:52:45;99407.63;;;14.54;60.09
75891;BME280;64571;47.512;19.054;2023-04-25T09:55:48;99409.97;;;14.64;59.66
75891;BME280;64571;47.512;19.054;2023-04-25T09:58:53;99387.34;;;14.82;59.11
75891;BME280;64571;47.512;19.054;2023-04-25T10:01:57;99404.44;;;15.05;58.62
75891;BME280;64571;47.512;19.054;2023-04-25T10:05:02;99410.00;;;15.17;58.46
75891;BME280;64571;47.512;19.054;2023-04-25T10:08:08;99397.69;;;15.06;58.79
75891;BME280;64571;47.512;19.054;2023-04-25T10:11:14;99413.97;;;15.16;58.30
75891;BME280;64571;47.512;19.054;2023-04-25T10:14:18;99410.62;;;14.86;56.81
75891;BME280;64571;47.512;19.054;2023-04-25T10:17:22;99390.97;;;14.82;56.93
75891;BME280;64571;47.512;19.054;2023-04-25T10:20:25;99390.47;;;14.80;57.10
75891;BME280;64571;47.512;19.054;2023-04-25T10:23:30;99413.53;;;15.02;56.55
75891;BME280;64571;47.512;19.054;2023-04-25T10:26:32;99407.72;;;14.94;56.31
75891;BME280;64571;47.512;19.054;2023-04-25T10:29:35;99410.19;;;14.84;55.78
75891;BME280;64571;47.512;19.054;2023-04-25T10:32:38;99407.00;;;14.98;55.78
75891;BME280;64571;47.512;19.054;2023-04-25T10:35:40;99410.31;;;14.75;55.83
75891;BME280;64571;47.512;19.054;2023-04-25T10:38:44;99394.00;;;14.77;56.27
75891;BME280;64571;47.512;19.054;2023-04-25T10:41:52;99403.41;;;14.97;55.95
75891;BME280;64571;47.512;19.054;2023-04-25T10:45:04;99390.09;;;15.06;55.35
75891;BME280;64571;47.512;19.054;2023-04-25T10:48:28;99399.97;;;15.28;54.69
75891;BME280;64571;47.512;19.054;2023-04-25T10:51:32;99413.97;;;15.68;53.45
75891;BME280;64571;47.512;19.054;2023-04-25T10:54:56;99407.06;;;15.66;52.73
75891;BME280;64571;47.512;19.054;2023-04-25T10:58:00;99410.38;;;15.56;52.43
75891;BME280;64571;47.512;19.054;2023-04-25T11:01:03;99425.84;;;15.93;52.19
75891;BME280;64571;47.512;19.054;2023-04-25T11:04:06;99417.72;;;15.88;52.96
75891;BME280;64571;47.512;19.054;2023-04-25T11:07:49;99421.00;;;15.90;51.75
75891;BME280;64571;47.512;19.054;2023-04-25T11:11:05;99425.31;;;15.88;51.04
75891;BME280;64571;47.512;19.054;2023-04-25T11:14:08;99439.47;;;15.79;50.79
75891;BME280;64571;47.512;19.054;2023-04-25T11:17:10;99430.81;;;16.28;49.57
75891;BME280;64571;47.512;19.054;2023-04-25T11:20:13;99429.13;;;16.39;49.49
75891;BME280;64571;47.512;19.054;2023-04-25T11:23:17;99439.75;;;16.18;49.51
75891;BME280;64571;47.512;19.054;2023-04-25T11:26:20;99439.25;;;16.44;48.35
75891;BME280;64571;47.512;19.054;2023-04-25T11:29:23;99416.78;;;16.60;47.71
75891;BME280;64571;47.512;19.054;2023-04-25T11:32:26;99429.28;;;16.78;47.30
75891;BME280;64571;47.512;19.054;2023-04-25T11:35:29;99442.50;;;16.62;47.38
75891;BME280;64571;47.512;19.054;2023-04-25T11:38:31;99436.72;;;16.55;47.30
75891;BME280;64571;47.512;19.054;2023-04-25T11:41:34;99450.19;;;16.49;47.35
75891;BME280;64571;47.512;19.054;2023-04-25T11:44:39;99433.06;;;16.23;47.75
75891;BME280;64571;47.512;19.054;2023-04-25T11:47:42;99433.53;;;15.81;48.58
75891;BME280;64571;47.512;19.054;2023-04-25T11:50:45;99453.88;;;15.93;48.34
75891;BME280;64571;47.512;19.054;2023-04-25T11:53:48;99440.03;;;15.85;47.38
75891;BME280;64571;47.512;19.054;2023-04-25T11:56:51;99462.06;;;15.99;47.37
75891;BME280;64571;47.512;19.054;2023-04-25T11:59:53;99464.75;;;15.95;47.46
75891;BME280;64571;47.512;19.054;2023-04-25T12:02:57;99461.88;;;16.07;47.34
75891;BME280;64571;47.512;19.054;2023-04-25T12:06:03;99461.38;;;16.17;47.51
75891;BME280;64571;47.512;19.054;2023-04-25T12:09:11;99465.81;;;16.18;47.56
75891;BME280;64571;47.512;19.054;2023-04-25T12:12:15;99485.06;;;16.20;48.54
75891;BME280;64571;47.512;19.054;2023-04-25T12:15:25;99475.69;;;16.28;48.17
75891;BME280;64571;47.512;19.054;2023-04-25T12:18:28;99458.91;;;15.60;48.66
75891;BME280;64571;47.512;19.054;2023-04-25T12:21:32;99464.19;;;16.17;47.74
75891;BME280;64571;47.512;19.054;2023-04-25T12:24:40;99456.41;;;16.42;46.81
75891;BME280;64571;47.512;19.054;2023-04-25T12:27:42;99445.94;;;17.03;45.52
75891;BME280;64571;47.512;19.054;2023-04-25T12:30:59;99464.78;;;17.37;44.43
75891;BME280;64571;47.512;19.054;2023-04-25T12:34:01;99456.16;;;16.48;44.45
75891;BME280;64571;47.512;19.054;2023-04-25T12:37:04;99450.69;;;17.18;43.33
75891;BME280;64571;47.512;19.054;2023-04-25T12:40:07;99436.37;;;17.78;42.20
75891;BME280;64571;47.512;19.054;2023-04-25T12:43:11;99429.97;;;17.42;42.50
75891;BME280;64571;47.512;19.054;2023-04-25T12:46:13;99438.66;;;17.91;40.99
75891;BME280;64571;47.512;19.054;2023-04-25T12:49:16;99421.19;;;17.82;40.25
75891;BME280;64571;47.512;19.054;2023-04-25T12:52:20;99443.75;;;18.05;39.75
75891;BME280;64571;47.512;19.054;2023-04-25T12:55:23;99420.16;;;17.71;38.65
75891;BME280;64571;47.512;19.054;2023-04-25T12:58:25;99415.28;;;17.87;38.35
75891;BME280;64571;47.512;19.054;2023-04-25T13:01:28;99424.28;;;17.96;38.78
75891;BME280;64571;47.512;19.054;2023-04-25T13:04:31;99428.78;;;18.01;38.93
75891;BME280;64571;47.512;19.054;2023-04-25T13:07:34;99437.00;;;18.10;39.34
75891;BME280;64571;47.512;19.054;2023-04-25T13:10:37;99433.59;;;18.01;38.94
75891;BME280;64571;47.512;19.054;2023-04-25T13:13:42;99432.72;;;17.96;37.83
75891;BME280;64571;47.512;19.054;2023-04-25T13:16:44;99425.69;;;17.48;38.60
75891;BME280;64571;47.512;19.054;2023-04-25T13:19:48;99411.47;;;17.60;38.74
75891;BME280;64571;47.512;19.054;2023-04-25T13:22:50;99421.91;;;17.60;38.99
75891;BME280;64571;47.512;19.054;2023-04-25T13:25:53;99416.47;;;17.86;37.98
75891;BME280;64571;47.512;19.054;2023-04-25T13:28:57;99397.97;;;17.85;37.47
75891;BME280;64571;47.512;19.054;2023-04-25T13:32:00;99402.69;;;17.62;37.62
75891;BME280;64571;47.512;19.054;2023-04-25T13:35:06;99392.03;;;17.90;36.78
75891;BME280;64571;47.512;19.054;2023-04-25T13:38:12;99405.25;;;18.09;36.58
75891;BME280;64571;47.512;19.054;2023-04-25T13:41:15;99385.22;;;18.11;35.44
75891;BME280;64571;47.512;19.054;2023-04-25T13:44:21;99386.34;;;18.29;34.80
75891;BME280;64571;47.512;19.054;2023-04-25T13:47:24;99398.34;;;17.84;34.77
75891;BME280;64571;47.512;19.054;2023-04-25T13:50:27;99403.00;;;18.18;34.91
75891;BME280;64571;47.512;19.054;2023-04-25T13:53:30;99386.84;;;18.12;34.52
75891;BME280;64571;47.512;19.054;2023-04-25T13:56:33;99382.38;;;17.88;34.93
75891;BME280;64571;47.512;19.054;2023-04-25T13:59:35;99383.31;;;17.95;34.90
75891;BME280;64571;47.512;19.054;2023-04-25T14:02:38;99401.75;;;17.93;33.55
75891;BME280;64571;47.512;19.054;2023-04-25T14:05:41;99387.78;;;17.77;34.18
75891;BME280;64571;47.512;19.054;2023-04-25T14:08:44;99396.94;;;17.93;34.02
75891;BME280;64571;47.512;19.054;2023-04-25T14:11:46;99389.63;;;17.89;33.86
75891;BME280;64571;47.512;19.054;2023-04-25T14:14:48;99380.22;;;17.62;34.32
75891;BME280;64571;47.512;19.054;2023-04-25T14:17:51;99399.87;;;18.01;34.33
75891;BME280;64571;47.512;19.054;2023-04-25T14:20:54;99379.56;;;17.88;34.60
75891;BME280;64571;47.512;19.054;2023-04-25T14:23:57;99383.87;;;18.05;34.65
75891;BME280;64571;47.512;19.054;2023-04-25T14:26:59;99391.25;;;17.90;34.84
75891;BME280;64571;47.512;19.054;2023-04-25T14:30:02;99381.63;;;17.52;35.25
75891;BME280;64571;47.512;19.054;2023-04-25T14:33:04;99383.78;;;17.78;35.42
75891;BME280;64571;47.512;19.054;2023-04-25T14:36:07;99402.47;;;17.90;35.95
75891;BME280;64571;47.512;19.054;2023-04-25T14:39:10;99403.72;;;17.73;35.83
75891;BME280;64571;47.512;19.054;2023-04-25T14:42:13;99403.69;;;17.89;35.68
75891;BME280;64571;47.512;19.054;2023-04-25T14:45:15;99390.16;;;17.75;36.20
75891;BME280;64571;47.512;19.054;2023-04-25T14:48:18;99384.88;;;17.54;35.99
75891;BME280;64571;47.512;19.054;2023-04-25T14:51:22;99391.81;;;17.60;36.45
75891;BME280;64571;47.512;19.054;2023-04-25T14:54:24;99379.62;;;17.53;36.16
75891;BME280;64571;47.512;19.054;2023-04-25T14:57:27;99379.25;;;17.74;36.05
75891;BME280;64571;47.512;19.054;2023-04-25T15:00:30;99394.03;;;17.70;36.27
75891;BME280;64571;47.512;19.054;2023-04-25T15:03:33;99386.28;;;17.64;36.09
75891;BME280;64571;47.512;19.054;2023-04-25T15:06:36;99387.88;;;17.65;36.26
75891;BME280;64571;47.512;19.054;2023-04-25T15:09:39;99399.13;;;17.45;36.66
75891;BME280;64571;47.512;19.054;2023-04-25T15:12:42;99395.72;;;17.36;36.89
75891;BME280;64571;47.512;19.054;2023-04-25T15:15:48;99398.78;;;17.66;36.82
75891;BME280;64571;47.512;19.054;2023-04-25T15:18:53;99385.97;;;17.69;36.54
75891;BME280;64571;47.512;19.054;2023-04-25T15:21:56;99380.59;;;17.80;36.73
75891;BME280;64571;47.512;19.054;2023-04-25T15:24:58;99395.00;;;17.59;36.90
75891;BME280;64571;47.512;19.054;2023-04-25T15:28:01;99390.41;;;17.31;36.81
75891;BME280;64571;47.512;19.054;2023-04-25T15:31:04;99395.12;;;17.08;37.93
75891;BME280;64571;47.512;19.054;2023-04-25T15:34:06;99408.13;;;16.81;37.79
75891;BME280;64571;47.512;19.054;2023-04-25T15:37:09;99400.59;;;16.53;38.33
75891;BME280;64571;47.512;19.054;2023-04-25T15:40:14;99407.81;;;16.70;38.58
75891;BME280;64571;47.512;19.054;2023-04-25T15:43:17;99400.78;;;16.60;39.05
75891;BME280;64571;47.512;19.054;2023-04-25T15:46:20;99422.78;;;16.27;39.02
75891;BME280;64571;47.512;19.054;2023-04-25T15:49:24;99419.84;;;16.39;39.21
75891;BME280;64571;47.512;19.054;2023-04-25T15:52:27;99423.47;;;16.24;39.44
75891;BME280;64571;47.512;19.054;2023-04-25T15:55:30;99408.66;;;15.79;41.69
75891;BME280;64571;47.512;19.054;2023-04-25T15:58:33;99420.66;;;15.80;43.03
75891;BME280;64571;47.512;19.054;2023-04-25T16:01:35;99410.06;;;15.45;45.18
75891;BME280;64571;47.512;19.054;2023-04-25T16:04:39;99408.19;;;15.09;48.31